Aeroporto :
LOGIN :

Iscrizione | Disclaimer

   EN    FR    IT 

 










Sommario :    VFR   VFR Marginale   IFR   IFR Intensivo   IFR Molto Intensivo
Visibilità : 
Base nubi : 
>= 8 km
>= 3000ft
5 / 8 km
1000 / 3000 ft
1500m / 5 km
500 / 1000 ft
800 / 1500m
200 / 500 ft
< 800m
< 200 ft
Simboli :   Temporali  Nebbia  Neve Forte  Precipitazioni Forti  Vento > 20 kt
SIGMETs :   Varie  Temporali  Ghiacco  Turbolenza  Onda orograficha  Ceneri Vulcaniche






- Altitudine del aeroporto : 465 ft
- Codice IATA : LEJ


EDDP - Leipzig Halle

ULTIMO METAR :
  • 240720Z AUTO 25008KT 9999 FEW035 05/M00 Q1007 NOSIG

METARs OBSOLETI :
  • 240650Z AUTO 25008KT CAVOK 05/00 Q1007 NOSIG
  • 240620Z AUTO 23008KT CAVOK 04/M00 Q1007 NOSIG
  • 240550Z AUTO 20007KT 9999 FEW034 04/M00 Q1007 NOSIG
  • 240520Z AUTO 19007KT 9999 FEW042 04/M01 Q1007 NOSIG
  • 240450Z AUTO 17007KT CAVOK 04/M01 Q1008 NOSIG
  • 240420Z AUTO 16007KT 150V210 CAVOK 04/M00 Q1008 NOSIG
  • 240350Z AUTO 18006KT 150V210 CAVOK 04/M01 Q1008 NOSIG
  • 240320Z AUTO 19006KT 160V220 CAVOK 04/M01 Q1008

TAF TAF EDDP
Valido dal 24 a 06 ore il 25 a 06 ore UTC


240500Z 2406/2506 25007KT 9999 FEW020 SCT040
PROB40
TEMPO 2413/2417 3000 SHGSRA BKN015CB
BECMG 2419/2421 19005KT
BECMG 2422/2424 25007KT
TEMPO 2422/2506 4500 SHRASN BKN012CB
PROB40
TEMPO 2501/2506 2500 SHSNRA BKN008CB



MetMap, La meteo Aeronautica in un colpo d'occhio ! - Copyright ORBIFLY Dicembre 2007 - Disclaimer

ORBIFLY MET'MAP TEAM :

Programmazione e sviluppo : Alexandra Zaïnal
Concezione : Baudouin d'Aumeries
Supporto tecnico e logistico : Manuel Goepfert
Aiuto : Marc-Olivier Méhu
Aiuto per la traduzione : Arnaldo La Scala




FONTI E CREDITI :

   NOAA